createdAt,value
2023-01-27T00:00:51.914Z,100185.94
2023-01-27T00:03:19.610Z,100181.53
2023-01-27T00:05:47.337Z,100184.97
2023-01-27T00:08:14.538Z,100185.81
2023-01-27T00:10:41.501Z,100186.66
2023-01-27T00:13:27.846Z,100190.22
2023-01-27T00:15:55.635Z,100184.03
2023-01-27T00:18:23.643Z,100191.88
2023-01-27T00:21:09.616Z,100189.28
2023-01-27T00:23:55.532Z,100181.41
2023-01-27T00:26:23.208Z,100184.97
2023-01-27T00:28:50.179Z,100185.81
2023-01-27T00:31:38.068Z,100180.56
2023-01-27T00:34:11.299Z,100179.72
2023-01-27T00:36:41.616Z,100188.44
2023-01-27T00:39:11.064Z,100178.91
2023-01-27T00:41:39.288Z,100177.13
2023-01-27T00:44:12.534Z,100182.34
2023-01-27T00:46:41.156Z,100185.81
2023-01-27T00:49:10.719Z,100179.72
2023-01-27T00:51:37.663Z,100173.66
2023-01-27T00:54:05.213Z,100170.91
2023-01-27T00:56:32.669Z,100171.03
2023-01-27T00:58:59.999Z,100171.88
2023-01-27T01:01:27.546Z,100172.81
2023-01-27T01:03:54.530Z,100175.31
2023-01-27T01:06:21.652Z,100173.53
2023-01-27T01:08:48.917Z,100177.00
2023-01-27T01:11:17.360Z,100173.53
2023-01-27T01:13:46.543Z,100169.94
2023-01-27T01:16:20.608Z,100175.19
2023-01-27T01:18:49.122Z,100175.09
2023-01-27T01:21:16.911Z,100169.03
2023-01-27T01:23:45.833Z,100170.81
2023-01-27T01:26:15.563Z,100162.00
2023-01-27T01:28:46.988Z,100167.25
2023-01-27T01:31:19.409Z,100165.44
2023-01-27T01:33:47.753Z,100167.25
2023-01-27T01:36:20.674Z,100162.94
2023-01-27T01:38:48.857Z,100170.69
2023-01-27T01:41:20.652Z,100163.78
2023-01-27T01:43:49.896Z,100170.69
2023-01-27T01:46:18.266Z,100164.50
2023-01-27T01:48:56.008Z,100168.06
2023-01-27T01:51:26.982Z,100172.38
2023-01-27T01:54:09.380Z,100167.13
2023-01-27T01:56:58.078Z,100165.31
2023-01-27T01:59:35.453Z,100154.97
2023-01-27T02:02:10.896Z,100165.44
2023-01-27T02:04:46.260Z,100161.03
2023-01-27T02:07:49.818Z,100161.88
2023-01-27T02:10:16.881Z,100159.25
2023-01-27T02:12:45.699Z,100171.41
2023-01-27T02:15:13.362Z,100164.38
2023-01-27T02:17:41.024Z,100163.53
2023-01-27T02:20:30.436Z,100168.78
2023-01-27T02:23:09.145Z,100164.38
2023-01-27T02:25:40.210Z,100167.94
2023-01-27T02:28:08.666Z,100165.22
2023-01-27T02:30:35.759Z,100168.66
2023-01-27T02:33:13.710Z,100162.59
2023-01-27T02:36:12.154Z,100154.72
2023-01-27T02:38:49.169Z,100156.38
2023-01-27T02:41:32.662Z,100158.16
2023-01-27T02:44:00.557Z,100149.47
2023-01-27T02:46:28.024Z,100150.31
2023-01-27T02:48:55.154Z,100148.50
2023-01-27T02:51:23.314Z,100152.09
2023-01-27T02:53:50.367Z,100154.72
2023-01-27T02:56:17.296Z,100150.31
2023-01-27T02:58:44.492Z,100149.47
2023-01-27T03:01:15.605Z,100152.84
2023-01-27T03:03:47.239Z,100147.59
2023-01-27T03:06:20.167Z,100147.59
2023-01-27T03:08:47.860Z,100152.84
2023-01-27T03:11:36.327Z,100154.50
2023-01-27T03:14:03.944Z,100152.84
2023-01-27T03:16:49.237Z,100160.72
2023-01-27T03:19:17.151Z,100163.31
2023-01-27T03:21:45.180Z,100158.09
2023-01-27T03:24:12.726Z,100163.31
2023-01-27T03:26:39.801Z,100161.53
2023-01-27T03:29:26.857Z,100160.59
2023-01-27T03:31:53.944Z,100162.38
2023-01-27T03:34:21.463Z,100166.66
2023-01-27T03:37:09.312Z,100169.28
2023-01-27T03:39:55.327Z,100160.59
2023-01-27T03:42:41.629Z,100161.41
2023-01-27T03:45:27.999Z,100164.03
2023-01-27T03:47:54.954Z,100165.81
2023-01-27T03:50:31.060Z,100169.28
2023-01-27T03:53:04.254Z,100170.94
2023-01-27T03:55:32.991Z,100171.91
2023-01-27T03:58:14.446Z,100173.56
2023-01-27T04:00:41.594Z,100179.66
2023-01-27T04:03:27.107Z,100183.22
2023-01-27T04:06:12.917Z,100182.28
2023-01-27T04:08:43.458Z,100176.19
2023-01-27T04:11:31.512Z,100189.31
2023-01-27T04:14:05.319Z,100184.06
2023-01-27T04:16:34.334Z,100189.31
2023-01-27T04:19:01.354Z,100191.94
2023-01-27T04:21:28.487Z,100185.84
2023-01-27T04:23:55.844Z,100191.94
2023-01-27T04:26:23.177Z,100188.47
2023-01-27T04:28:50.561Z,100184.06
2023-01-27T04:31:18.158Z,100192.78
2023-01-27T04:33:45.357Z,100187.41
2023-01-27T04:36:15.589Z,100183.09
2023-01-27T04:38:42.798Z,100189.19
2023-01-27T04:41:10.035Z,100186.44
2023-01-27T04:43:37.098Z,100188.22
2023-01-27T04:46:04.207Z,100193.38
2023-01-27T04:48:31.176Z,100190.75
2023-01-27T04:50:58.093Z,100190.75
2023-01-27T04:53:25.046Z,100196.94
2023-01-27T04:55:51.936Z,100201.25
2023-01-27T04:58:19.116Z,100201.25
2023-01-27T05:00:46.153Z,100198.63
2023-01-27T05:03:13.178Z,100208.03
2023-01-27T05:05:40.136Z,100206.38
2023-01-27T05:08:10.194Z,100199.34
2023-01-27T05:10:37.434Z,100198.38
2023-01-27T05:13:04.428Z,100201.00
2023-01-27T05:15:31.512Z,100199.22
2023-01-27T05:17:58.433Z,100207.94
2023-01-27T05:20:25.377Z,100203.50
2023-01-27T05:23:12.288Z,100208.75
2023-01-27T05:25:43.929Z,100201.84
2023-01-27T05:28:12.133Z,100199.22
2023-01-27T05:30:39.537Z,100202.69
2023-01-27T05:33:08.280Z,100204.34
2023-01-27T05:35:35.813Z,100203.50
2023-01-27T05:38:03.014Z,100209.59
2023-01-27T05:40:30.108Z,100212.22
2023-01-27T05:42:57.044Z,100202.69
2023-01-27T05:45:23.939Z,100207.81
2023-01-27T05:47:51.497Z,100203.50
2023-01-27T05:50:19.126Z,100216.53
2023-01-27T05:52:46.438Z,100210.44
2023-01-27T05:55:13.708Z,100216.53
2023-01-27T05:57:40.811Z,100210.44
2023-01-27T06:00:08.683Z,100216.53
2023-01-27T06:02:35.640Z,100220.09
2023-01-27T06:05:02.727Z,100222.63
2023-01-27T06:07:29.716Z,100217.38
2023-01-27T06:09:56.644Z,100221.78
2023-01-27T06:12:23.584Z,100219.03
2023-01-27T06:14:50.527Z,100224.28
2023-01-27T06:17:17.461Z,100233.00
2023-01-27T06:19:44.395Z,100236.56
2023-01-27T06:22:11.334Z,100228.69
2023-01-27T06:24:38.241Z,100225.13
2023-01-27T06:27:05.128Z,100232.16
2023-01-27T06:29:32.185Z,100229.53
2023-01-27T06:31:59.148Z,100235.63
2023-01-27T06:34:26.084Z,100229.53
2023-01-27T06:36:54.063Z,100233.94
2023-01-27T06:39:21.269Z,100233.94
2023-01-27T06:41:50.281Z,100234.78
2023-01-27T06:44:17.275Z,100242.78
2023-01-27T06:46:44.274Z,100245.41
2023-01-27T06:49:11.269Z,100247.16
2023-01-27T06:51:38.178Z,100248.03
2023-01-27T06:54:05.333Z,100251.56
2023-01-27T06:56:32.293Z,100245.41
2023-01-27T06:58:59.207Z,100258.50
2023-01-27T07:01:26.169Z,100261.97
2023-01-27T07:03:53.133Z,100269.84
2023-01-27T07:06:20.486Z,100264.59
2023-01-27T07:08:47.500Z,100261.00
2023-01-27T07:11:14.542Z,100267.09
2023-01-27T07:13:41.615Z,100276.63
2023-01-27T07:16:08.659Z,100281.88
2023-01-27T07:18:35.580Z,100291.44
2023-01-27T07:21:05.462Z,100293.09
2023-01-27T07:23:32.477Z,100290.59
2023-01-27T07:26:04.285Z,100297.50
2023-01-27T07:28:32.748Z,100297.50
2023-01-27T07:31:03.287Z,100299.28
2023-01-27T07:33:30.343Z,100301.91
2023-01-27T07:35:57.542Z,100303.72
2023-01-27T07:38:24.551Z,100306.31
2023-01-27T07:40:51.518Z,100306.44
2023-01-27T07:43:18.497Z,100305.50
2023-01-27T07:45:51.054Z,100305.50
2023-01-27T07:48:17.927Z,100310.75
2023-01-27T07:50:44.889Z,100319.44
2023-01-27T07:53:11.866Z,100315.03
2023-01-27T07:55:38.942Z,100330.66
2023-01-27T07:58:06.138Z,100331.50
2023-01-27T08:00:34.039Z,100325.31
2023-01-27T08:03:02.885Z,100324.38
2023-01-27T08:05:34.205Z,100332.13
2023-01-27T08:08:04.196Z,100338.19
2023-01-27T08:10:31.451Z,100336.28
2023-01-27T08:12:58.391Z,100340.63
2023-01-27T08:15:25.355Z,100343.25
2023-01-27T08:17:59.728Z,100341.34
2023-01-27T08:20:27.926Z,100336.09
2023-01-27T08:22:55.420Z,100339.53
2023-01-27T08:25:22.947Z,100339.41
2023-01-27T08:27:52.530Z,100331.56
2023-01-27T08:30:20.049Z,100331.56
2023-01-27T08:32:47.754Z,100331.44
2023-01-27T08:35:14.956Z,100331.34
2023-01-27T08:37:41.942Z,100339.94
2023-01-27T08:40:10.022Z,100337.19
2023-01-27T08:42:36.965Z,100334.56
2023-01-27T08:45:04.316Z,100327.41
2023-01-27T08:47:31.241Z,100336.00
2023-01-27T08:49:58.242Z,100333.25
2023-01-27T08:52:27.563Z,100332.31
2023-01-27T08:54:54.476Z,100336.41
2023-01-27T08:57:21.386Z,100338.06
2023-01-27T08:59:48.308Z,100340.56
2023-01-27T09:02:15.198Z,100340.44
2023-01-27T09:04:44.245Z,100342.13
2023-01-27T09:07:11.564Z,100344.53
2023-01-27T09:09:38.452Z,100344.53
2023-01-27T09:12:05.467Z,100345.13
2023-01-27T09:14:32.552Z,100350.28
2023-01-27T09:16:59.532Z,100356.97
2023-01-27T09:19:26.434Z,100357.69
2023-01-27T09:21:53.346Z,100352.19
2023-01-27T09:24:20.499Z,100358.16
2023-01-27T09:26:47.600Z,100361.41
2023-01-27T09:29:14.631Z,100362.97
2023-01-27T09:31:41.720Z,100367.25
2023-01-27T09:34:08.707Z,100367.03
2023-01-27T09:36:42.977Z,100367.88
2023-01-27T09:39:11.667Z,100380.88
2023-01-27T09:42:18.286Z,100368.38
2023-01-27T09:45:40.465Z,100368.25
2023-01-27T09:48:33.657Z,100368.25
2023-01-27T09:51:22.911Z,100369.91
2023-01-27T09:54:23.756Z,100368.97
2023-01-27T09:57:24.667Z,100373.03
2023-01-27T10:00:21.794Z,100379.84
2023-01-27T10:03:12.430Z,100374.47
2023-01-27T10:06:20.004Z,100376.16
2023-01-27T10:09:20.755Z,100377.72
2023-01-27T10:12:16.696Z,100379.25
2023-01-27T10:15:08.483Z,100372.09
2023-01-27T10:18:10.734Z,100375.44
2023-01-27T10:21:08.352Z,100382.16
2023-01-27T10:23:53.353Z,100376.66
2023-01-27T10:26:31.837Z,100375.56
2023-01-27T10:29:09.668Z,100369.47
2023-01-27T10:31:45.785Z,100372.72
2023-01-27T10:34:34.322Z,100369.00
2023-01-27T10:37:53.940Z,100365.19
2023-01-27T10:40:35.995Z,100360.53
2023-01-27T10:43:28.249Z,100365.44
2023-01-27T10:46:34.193Z,100359.00
2023-01-27T10:49:24.143Z,100355.97
2023-01-27T10:52:13.606Z,100355.50
2023-01-27T10:55:28.283Z,100347.25
2023-01-27T10:58:16.701Z,100352.25
2023-01-27T11:01:19.390Z,100352.25
2023-01-27T11:03:57.409Z,100348.22
2023-01-27T11:06:30.714Z,100339.25
2023-01-27T11:09:24.007Z,100337.91
2023-01-27T11:11:52.748Z,100340.28
2023-01-27T11:14:30.121Z,100340.75
2023-01-27T11:17:14.185Z,100345.91
2023-01-27T11:19:54.432Z,100336.94
2023-01-27T11:22:28.643Z,100335.00
2023-01-27T11:25:13.905Z,100332.13
2023-01-27T11:28:24.225Z,100336.19
2023-01-27T11:31:40.434Z,100328.88
2023-01-27T11:34:16.184Z,100336.66
2023-01-27T11:36:43.276Z,100333.06
2023-01-27T11:39:11.868Z,100330.16
2023-01-27T11:41:56.040Z,100330.91
2023-01-27T11:44:34.272Z,100322.03
2023-01-27T11:47:06.172Z,100325.38
2023-01-27T11:49:42.868Z,100325.38
2023-01-27T11:52:17.423Z,100323.44
2023-01-27T11:55:19.951Z,100331.94
2023-01-27T11:58:11.499Z,100330.84
2023-01-27T12:00:45.217Z,100326.31
2023-01-27T12:03:41.700Z,100322.72
2023-01-27T12:06:33.714Z,100325.06
2023-01-27T12:09:00.730Z,100311.91
2023-01-27T12:11:32.397Z,100319.56
2023-01-27T12:14:01.839Z,100318.75
2023-01-27T12:16:48.934Z,100310.94
2023-01-27T12:19:32.021Z,100316.94
2023-01-27T12:22:06.257Z,100315.97
2023-01-27T12:24:41.940Z,100323.75
2023-01-27T12:27:24.407Z,100315.72
2023-01-27T12:30:02.343Z,100313.91
2023-01-27T12:32:46.859Z,100318.25
2023-01-27T12:35:28.949Z,100316.44
2023-01-27T12:38:02.716Z,100319.91
2023-01-27T12:40:30.077Z,100309.47
2023-01-27T12:43:09.963Z,100311.19
2023-01-27T12:45:39.540Z,100311.19
2023-01-27T12:48:09.082Z,100312.84
2023-01-27T12:50:40.054Z,100311.03
2023-01-27T12:53:22.074Z,100309.25
2023-01-27T12:56:23.597Z,100308.28
2023-01-27T12:59:00.351Z,100314.25
2023-01-27T13:01:37.684Z,100308.97
2023-01-27T13:04:10.385Z,100315.06
2023-01-27T13:06:48.405Z,100322.88
2023-01-27T13:09:31.904Z,100313.16
2023-01-27T13:12:21.785Z,100319.13
2023-01-27T13:14:56.628Z,100312.91
2023-01-27T13:17:53.072Z,100330.38
2023-01-27T13:20:47.601Z,100322.38
2023-01-27T13:23:29.734Z,100322.38
2023-01-27T13:26:10.320Z,100325.69
2023-01-27T13:29:01.737Z,100327.34
2023-01-27T13:31:51.896Z,100321.13
2023-01-27T13:34:38.902Z,100327.22
2023-01-27T13:37:31.499Z,100327.09
2023-01-27T13:40:29.552Z,100322.56
2023-01-27T13:43:33.667Z,100322.78
2023-01-27T13:46:33.341Z,100324.22
2023-01-27T13:49:16.349Z,100318.94
2023-01-27T13:51:43.360Z,100323.94
2023-01-27T13:54:15.462Z,100327.31
2023-01-27T13:57:48.273Z,100327.63
2023-01-27T14:00:51.489Z,100332.50
2023-01-27T14:03:55.759Z,100325.31
2023-01-27T14:07:02.021Z,100324.91
2023-01-27T14:09:53.881Z,100332.72
2023-01-27T14:12:52.197Z,100323.84
2023-01-27T14:16:02.400Z,100327.44
2023-01-27T14:18:51.590Z,100329.34
2023-01-27T14:21:47.065Z,100322.28
2023-01-27T14:24:40.529Z,100331.03
2023-01-27T14:27:43.740Z,100327.44
2023-01-27T14:30:22.554Z,100332.81
2023-01-27T14:33:05.920Z,100334.63
2023-01-27T14:35:50.870Z,100330.31
2023-01-27T14:38:37.704Z,100339.06
2023-01-27T14:41:10.682Z,100342.53
2023-01-27T14:44:20.578Z,100344.19
2023-01-27T14:47:30.401Z,100346.72
2023-01-27T14:50:17.033Z,100341.31
2023-01-27T14:53:25.516Z,100343.69
2023-01-27T14:56:07.317Z,100343.44
2023-01-27T14:59:11.175Z,100339.56
2023-01-27T15:01:48.132Z,100342.91
2023-01-27T15:04:33.334Z,100342.66
2023-01-27T15:07:19.304Z,100341.56
2023-01-27T15:10:24.375Z,100350.19
2023-01-27T15:13:06.715Z,100351.00
2023-01-27T15:16:11.739Z,100357.13
2023-01-27T15:18:50.776Z,100357.25
2023-01-27T15:21:44.762Z,100360.84
2023-01-27T15:24:54.207Z,100354.84
2023-01-27T15:27:22.425Z,100362.06
2023-01-27T15:29:49.430Z,100369.28
2023-01-27T15:32:16.313Z,100378.16
2023-01-27T15:34:52.630Z,100382.69
2023-01-27T15:37:30.112Z,100382.69
2023-01-27T15:40:05.877Z,100386.44
2023-01-27T15:42:55.259Z,100384.91
2023-01-27T15:45:34.822Z,100385.84
2023-01-27T15:48:15.677Z,100389.44
2023-01-27T15:51:01.042Z,100380.84
2023-01-27T15:53:45.002Z,100388.06
2023-01-27T15:56:12.162Z,100388.16
2023-01-27T15:58:43.301Z,100388.28
2023-01-27T16:01:22.731Z,100388.41
2023-01-27T16:03:52.966Z,100395.72
2023-01-27T16:06:26.246Z,100399.34
2023-01-27T16:09:01.375Z,100395.03
2023-01-27T16:11:28.142Z,100396.84
2023-01-27T16:14:16.783Z,100392.66
2023-01-27T16:17:24.891Z,100395.53
2023-01-27T16:19:57.754Z,100400.94
2023-01-27T16:22:26.633Z,100400.09
2023-01-27T16:25:26.984Z,100403.72
2023-01-27T16:28:22.332Z,100414.34
2023-01-27T16:31:10.933Z,100405.59
2023-01-27T16:33:42.245Z,100404.91
2023-01-27T16:36:29.694Z,100405.88
2023-01-27T16:39:09.418Z,100409.47
2023-01-27T16:41:39.204Z,100414.75
2023-01-27T16:44:28.427Z,100407.81
2023-01-27T16:47:05.040Z,100412.25
2023-01-27T16:49:43.300Z,100421.91
2023-01-27T16:52:41.888Z,100418.44
2023-01-27T16:55:24.077Z,100418.56
2023-01-27T16:57:56.954Z,100419.53
2023-01-27T17:00:38.777Z,100426.63
2023-01-27T17:03:17.939Z,100414.41
2023-01-27T17:05:56.014Z,100422.31
2023-01-27T17:08:35.655Z,100419.69
2023-01-27T17:11:33.763Z,100414.41
2023-01-27T17:14:04.305Z,100426.75
2023-01-27T17:16:45.696Z,100416.34
2023-01-27T17:19:24.126Z,100419.81
2023-01-27T17:22:17.805Z,100415.47
2023-01-27T17:24:52.803Z,100416.44
2023-01-27T17:27:28.827Z,100414.66
2023-01-27T17:30:08.269Z,100418.09
2023-01-27T17:32:37.855Z,100420.03
2023-01-27T17:35:26.697Z,100424.34
2023-01-27T17:38:21.957Z,100426.97
2023-01-27T17:40:51.921Z,100425.31
2023-01-27T17:43:39.401Z,100427.09
2023-01-27T17:46:23.386Z,100438.47
2023-01-27T17:49:12.974Z,100435.84
2023-01-27T17:52:00.166Z,100442.06
2023-01-27T17:54:35.166Z,100440.28
2023-01-27T17:57:25.016Z,100436.81
2023-01-27T18:00:04.434Z,100436.81
2023-01-27T18:03:02.520Z,100444.72
2023-01-27T18:05:33.326Z,100441.25
2023-01-27T18:08:01.728Z,100431.53
2023-01-27T18:10:34.598Z,100429.75
2023-01-27T18:13:12.531Z,100440.28
2023-01-27T18:16:01.776Z,100434.88
2023-01-27T18:18:32.075Z,100445.41
2023-01-27T18:21:15.003Z,100433.06
2023-01-27T18:23:56.598Z,100440.16
2023-01-27T18:26:38.766Z,100440.88
2023-01-27T18:29:19.758Z,100436.53
2023-01-27T18:32:14.114Z,100440.16
2023-01-27T18:34:49.600Z,100445.41
2023-01-27T18:37:33.839Z,100441.81
2023-01-27T18:40:21.401Z,100440.97
2023-01-27T18:42:53.369Z,100442.78
2023-01-27T18:45:20.466Z,100447.09
2023-01-27T18:47:47.550Z,100453.22
2023-01-27T18:50:21.695Z,100455.84
2023-01-27T18:52:50.086Z,100455.84
2023-01-27T18:55:29.190Z,100463.75
2023-01-27T18:57:58.961Z,100460.16
2023-01-27T19:00:40.136Z,100466.25
2023-01-27T19:03:11.722Z,100476.78
2023-01-27T19:05:38.626Z,100479.41
2023-01-27T19:08:06.309Z,100478.69
2023-01-27T19:10:35.113Z,100475.13
2023-01-27T19:13:03.898Z,100478.59
2023-01-27T19:15:38.228Z,100476.78
2023-01-27T19:18:24.974Z,100476.78
2023-01-27T19:20:52.792Z,100473.19
2023-01-27T19:23:21.496Z,100476.78
2023-01-27T19:25:53.574Z,100478.47
2023-01-27T19:28:38.548Z,100473.19
2023-01-27T19:31:07.289Z,100470.56
2023-01-27T19:33:37.080Z,100478.47
2023-01-27T19:36:34.864Z,100485.38
2023-01-27T19:39:13.617Z,100476.66
2023-01-27T19:41:41.889Z,100485.38
2023-01-27T19:44:10.455Z,100494.13
2023-01-27T19:46:42.720Z,100487.19
2023-01-27T19:49:18.163Z,100488.03
2023-01-27T19:51:45.560Z,100495.78
2023-01-27T19:54:12.738Z,100497.59
2023-01-27T19:56:39.652Z,100502.88
2023-01-27T19:59:06.831Z,100508.97
2023-01-27T20:01:33.742Z,100506.47
2023-01-27T20:04:00.803Z,100506.47
2023-01-27T20:06:30.993Z,100502.88
2023-01-27T20:09:00.225Z,100496.75
2023-01-27T20:11:43.204Z,100493.28
2023-01-27T20:14:23.650Z,100502.88
2023-01-27T20:16:50.585Z,100500.34
2023-01-27T20:19:17.603Z,100498.69
2023-01-27T20:21:46.363Z,100504.78
2023-01-27T20:24:18.607Z,100498.69
2023-01-27T20:26:46.471Z,100505.75
2023-01-27T20:29:14.005Z,100505.75
2023-01-27T20:31:41.204Z,100509.22
2023-01-27T20:34:08.220Z,100506.72
2023-01-27T20:36:35.396Z,100512.00
2023-01-27T20:39:02.374Z,100512.00
2023-01-27T20:41:29.411Z,100509.34
2023-01-27T20:44:00.186Z,100510.28
2023-01-27T20:46:29.059Z,100514.63
2023-01-27T20:48:57.907Z,100508.53
2023-01-27T20:51:24.888Z,100522.53
2023-01-27T20:53:51.866Z,100519.06
2023-01-27T20:56:22.546Z,100526.97
2023-01-27T20:58:50.233Z,100520.81
2023-01-27T21:01:22.973Z,100533.06
2023-01-27T21:03:50.752Z,100513.88
2023-01-27T21:06:19.853Z,100512.91
2023-01-27T21:08:47.761Z,100523.47
2023-01-27T21:11:17.618Z,100521.78
2023-01-27T21:13:44.873Z,100520.00
2023-01-27T21:16:12.367Z,100521.78
2023-01-27T21:18:39.371Z,100526.09
2023-01-27T21:21:06.403Z,100526.09
2023-01-27T21:23:34.863Z,100533.16
2023-01-27T21:26:09.439Z,100534.97
2023-01-27T21:28:36.546Z,100533.28
2023-01-27T21:31:13.535Z,100537.72
2023-01-27T21:33:41.314Z,100539.66
2023-01-27T21:36:10.743Z,100539.66
2023-01-27T21:38:38.994Z,100540.72
2023-01-27T21:41:35.059Z,100538.06
2023-01-27T21:44:21.410Z,100539.03
2023-01-27T21:46:48.632Z,100541.78
2023-01-27T21:49:20.559Z,100536.53
2023-01-27T21:51:50.046Z,100539.16
2023-01-27T21:54:21.384Z,100540.97
2023-01-27T21:56:54.240Z,100546.22
2023-01-27T21:59:21.177Z,100544.56
2023-01-27T22:01:48.119Z,100541.09
2023-01-27T22:04:15.273Z,100546.34
2023-01-27T22:06:42.390Z,100545.53
2023-01-27T22:09:09.748Z,100547.31
2023-01-27T22:11:37.071Z,100550.88
2023-01-27T22:14:03.983Z,100546.47
2023-01-27T22:16:30.919Z,100545.63
2023-01-27T22:18:57.830Z,100557.00
2023-01-27T22:21:24.769Z,100549.09
2023-01-27T22:23:51.707Z,100549.94
2023-01-27T22:26:20.650Z,100551.72
2023-01-27T22:28:48.374Z,100550.78
2023-01-27T22:31:15.320Z,100554.25
2023-01-27T22:33:42.222Z,100556.06
2023-01-27T22:36:09.592Z,100542.88
2023-01-27T22:38:39.812Z,100548.16
2023-01-27T22:41:06.761Z,100543.72
2023-01-27T22:43:33.725Z,100538.47
2023-01-27T22:46:02.787Z,100541.94
2023-01-27T22:48:30.586Z,100543.59
2023-01-27T22:50:57.555Z,100547.91
2023-01-27T22:53:24.511Z,100542.63
2023-01-27T22:55:59.558Z,100544.44
2023-01-27T22:58:27.679Z,100537.38
2023-01-27T23:00:54.958Z,100536.53
2023-01-27T23:03:23.129Z,100539.16
2023-01-27T23:05:50.314Z,100530.44
2023-01-27T23:08:20.649Z,100530.44
2023-01-27T23:10:48.812Z,100536.66
2023-01-27T23:13:16.218Z,100536.66
2023-01-27T23:15:43.113Z,100535.81
2023-01-27T23:18:13.214Z,100535.91
2023-01-27T23:20:42.190Z,100544.78
2023-01-27T23:23:10.285Z,100546.47
2023-01-27T23:25:45.259Z,100537.72
2023-01-27T23:28:19.805Z,100536.06
2023-01-27T23:30:50.017Z,100541.31
2023-01-27T23:33:19.409Z,100536.19
2023-01-27T23:35:47.050Z,100532.72
2023-01-27T23:38:26.595Z,100546.72
2023-01-27T23:41:08.064Z,100530.91
2023-01-27T23:43:35.012Z,100535.34
2023-01-27T23:46:01.994Z,100536.19
2023-01-27T23:48:28.935Z,100534.50
2023-01-27T23:50:56.293Z,100551.28
2023-01-27T23:53:23.525Z,100546.00
2023-01-27T23:56:00.037Z,100547.81
2023-01-27T23:58:27.724Z,100555.69
